createdAt,value
2023-05-14T00:00:48.412Z,94088.16
2023-05-14T00:03:15.321Z,94080.88
2023-05-14T00:05:42.332Z,94078.00
2023-05-14T00:08:09.300Z,94077.53
2023-05-14T00:10:36.348Z,94084.78
2023-05-14T00:13:04.473Z,94080.13
2023-05-14T00:15:32.958Z,94074.94
2023-05-14T00:18:02.541Z,94072.97
2023-05-14T00:20:29.301Z,94078.97
2023-05-14T00:22:56.527Z,94080.13
2023-05-14T00:25:23.628Z,94067.53
2023-05-14T00:27:50.667Z,94064.31
2023-05-14T00:30:17.642Z,94065.44
2023-05-14T00:32:44.653Z,94063.66
2023-05-14T00:35:12.990Z,94070.59
2023-05-14T00:37:39.682Z,94058.03
2023-05-14T00:40:08.714Z,94060.78
2023-05-14T00:42:35.757Z,94044.47
2023-05-14T00:45:02.853Z,94047.22
2023-05-14T00:47:29.919Z,94053.38
2023-05-14T00:49:56.939Z,94048.88
2023-05-14T00:52:25.478Z,94049.19
2023-05-14T00:54:52.542Z,94048.84
2023-05-14T00:57:19.523Z,94055.78
2023-05-14T00:59:46.498Z,94047.22
2023-05-14T01:02:13.442Z,94042.41
2023-05-14T01:04:41.224Z,94041.31
2023-05-14T01:07:13.982Z,94046.00
2023-05-14T01:09:44.672Z,94047.13
2023-05-14T01:12:18.447Z,94048.25
2023-05-14T01:14:51.133Z,94047.94
2023-05-14T01:17:22.910Z,94046.66
2023-05-14T01:19:52.033Z,94050.22
2023-05-14T01:22:20.456Z,94048.09
2023-05-14T01:24:47.658Z,94056.53
2023-05-14T01:27:18.666Z,94059.78
2023-05-14T01:29:49.493Z,94057.03
2023-05-14T01:32:17.818Z,94053.16
2023-05-14T01:34:44.597Z,94052.50
2023-05-14T01:37:12.748Z,94060.91
2023-05-14T01:39:41.621Z,94065.75
2023-05-14T01:42:09.322Z,94062.69
2023-05-14T01:44:36.744Z,94062.69
2023-05-14T01:47:03.748Z,94061.56
2023-05-14T01:49:30.738Z,94061.91
2023-05-14T01:51:57.698Z,94072.84
2023-05-14T01:54:24.654Z,94065.41
2023-05-14T01:56:53.009Z,94067.38
2023-05-14T01:59:19.990Z,94072.69
2023-05-14T02:01:47.237Z,94070.47
2023-05-14T02:04:14.386Z,94070.66
2023-05-14T02:06:41.913Z,94061.66
2023-05-14T02:09:08.868Z,94066.47
2023-05-14T02:11:35.778Z,94071.97
2023-05-14T02:14:04.181Z,94074.56
2023-05-14T02:16:31.246Z,94071.00
2023-05-14T02:18:58.233Z,94059.25
2023-05-14T02:21:25.358Z,94065.38
2023-05-14T02:23:52.252Z,94063.13
2023-05-14T02:26:19.163Z,94073.59
2023-05-14T02:28:46.114Z,94081.81
2023-05-14T02:31:14.873Z,94077.13
2023-05-14T02:33:42.110Z,94075.19
2023-05-14T02:36:09.280Z,94078.59
2023-05-14T02:38:36.269Z,94075.22
2023-05-14T02:41:03.153Z,94080.69
2023-05-14T02:43:30.117Z,94092.78
2023-05-14T02:45:57.013Z,94102.91
2023-05-14T02:48:28.333Z,94102.44
2023-05-14T02:50:55.484Z,94110.16
2023-05-14T02:53:22.576Z,94108.53
2023-05-14T02:55:49.517Z,94109.03
2023-05-14T02:58:16.518Z,94108.22
2023-05-14T03:00:43.436Z,94105.97
2023-05-14T03:03:10.889Z,94099.53
2023-05-14T03:05:39.670Z,94103.88
2023-05-14T03:08:06.843Z,94105.13
2023-05-14T03:10:33.816Z,94099.00
2023-05-14T03:13:00.783Z,94089.53
2023-05-14T03:15:27.712Z,94086.47
2023-05-14T03:17:54.770Z,94078.84
2023-05-14T03:20:23.061Z,94088.97
2023-05-14T03:22:51.670Z,94088.16
2023-05-14T03:25:18.702Z,94087.00
2023-05-14T03:27:46.356Z,94089.72
2023-05-14T03:30:13.835Z,94086.38
2023-05-14T03:32:41.379Z,94083.00
2023-05-14T03:35:08.955Z,94087.16
2023-05-14T03:37:35.782Z,94093.13
2023-05-14T03:40:05.206Z,94102.78
2023-05-14T03:42:32.090Z,94100.34
2023-05-14T03:44:59.020Z,94091.34
2023-05-14T03:47:25.951Z,94083.66
2023-05-14T03:49:53.690Z,94087.34
2023-05-14T03:52:20.696Z,94087.34
2023-05-14T03:54:47.779Z,94096.41
2023-05-14T03:57:17.025Z,94091.88
2023-05-14T03:59:43.911Z,94095.91
2023-05-14T04:02:10.967Z,94094.19
2023-05-14T04:04:38.058Z,94094.97
2023-05-14T04:07:05.049Z,94097.41
2023-05-14T04:09:32.014Z,94094.31
2023-05-14T04:11:58.923Z,94093.81
2023-05-14T04:14:27.456Z,94093.31
2023-05-14T04:16:54.310Z,94099.28
2023-05-14T04:19:21.634Z,94097.34
2023-05-14T04:21:48.583Z,94108.28
2023-05-14T04:24:15.670Z,94111.47
2023-05-14T04:26:42.594Z,94110.31
2023-05-14T04:29:09.529Z,94107.59
2023-05-14T04:31:37.875Z,94122.91
2023-05-14T04:34:04.618Z,94118.72
2023-05-14T04:36:31.763Z,94125.63
2023-05-14T04:38:58.623Z,94127.72
2023-05-14T04:41:25.502Z,94135.72
2023-05-14T04:43:56.047Z,94131.25
2023-05-14T04:46:23.162Z,94133.00
2023-05-14T04:48:51.888Z,94142.81
2023-05-14T04:51:18.822Z,94146.78
2023-05-14T04:53:45.746Z,94148.56
2023-05-14T04:56:12.668Z,94147.13
2023-05-14T04:58:39.759Z,94153.84
2023-05-14T05:01:07.403Z,94159.97
2023-05-14T05:03:34.425Z,94158.78
2023-05-14T05:06:02.739Z,94163.00
2023-05-14T05:08:29.690Z,94169.44
2023-05-14T05:10:56.533Z,94169.31
2023-05-14T05:13:26.508Z,94172.34
2023-05-14T05:15:53.481Z,94187.09
2023-05-14T05:18:20.415Z,94184.53
2023-05-14T05:20:47.478Z,94188.72
2023-05-14T05:23:15.814Z,94193.84
2023-05-14T05:25:42.725Z,94203.28
2023-05-14T05:28:09.742Z,94201.81
2023-05-14T05:30:36.786Z,94195.81
2023-05-14T05:33:04.060Z,94208.13
2023-05-14T05:35:31.040Z,94212.66
2023-05-14T05:38:00.514Z,94214.94
2023-05-14T05:40:29.809Z,94209.19
2023-05-14T05:42:56.546Z,94211.59
2023-05-14T05:45:23.693Z,94212.25
2023-05-14T05:47:50.815Z,94216.44
2023-05-14T05:50:19.769Z,94215.50
2023-05-14T05:52:47.083Z,94222.41
2023-05-14T05:55:13.926Z,94222.84
2023-05-14T05:57:42.285Z,94221.91
2023-05-14T06:00:13.385Z,94213.88
2023-05-14T06:02:40.935Z,94202.91
2023-05-14T06:05:09.487Z,94207.91
2023-05-14T06:07:36.457Z,94197.97
2023-05-14T06:10:03.862Z,94208.13
2023-05-14T06:12:30.790Z,94205.88
2023-05-14T06:14:59.069Z,94211.19
2023-05-14T06:17:26.086Z,94206.34
2023-05-14T06:19:53.211Z,94201.66
2023-05-14T06:22:20.760Z,94199.53
2023-05-14T06:24:48.370Z,94194.13
2023-05-14T06:27:15.386Z,94195.22
2023-05-14T06:29:42.413Z,94193.22
2023-05-14T06:32:11.000Z,94203.47
2023-05-14T06:34:37.940Z,94213.56
2023-05-14T06:37:05.615Z,94221.22
2023-05-14T06:39:32.540Z,94207.38
2023-05-14T06:41:59.528Z,94203.22
2023-05-14T06:44:26.438Z,94200.41
2023-05-14T06:46:53.353Z,94209.03
2023-05-14T06:49:21.661Z,94198.59
2023-05-14T06:51:48.740Z,94193.53
2023-05-14T06:54:15.696Z,94184.50
2023-05-14T06:56:42.803Z,94185.50
2023-05-14T06:59:28.067Z,94174.97
2023-05-14T07:01:55.658Z,94169.72
2023-05-14T07:04:24.057Z,94170.97
2023-05-14T07:06:51.068Z,94175.09
2023-05-14T07:09:18.010Z,94174.94
2023-05-14T07:11:44.946Z,94167.38
2023-05-14T07:14:11.962Z,94175.94
2023-05-14T07:16:39.011Z,94181.88
2023-05-14T07:19:05.990Z,94193.91
2023-05-14T07:21:34.912Z,94215.38
2023-05-14T07:24:02.245Z,94223.00
2023-05-14T07:26:29.314Z,94213.72
2023-05-14T07:28:56.260Z,94219.91
2023-05-14T07:31:23.456Z,94219.75
2023-05-14T07:33:50.492Z,94222.53
2023-05-14T07:36:17.487Z,94214.09
2023-05-14T07:38:45.781Z,94215.03
2023-05-14T07:41:12.718Z,94207.41
2023-05-14T07:43:40.605Z,94216.31
2023-05-14T07:46:07.562Z,94212.38
2023-05-14T07:48:34.658Z,94212.78
2023-05-14T07:51:02.028Z,94221.88
2023-05-14T07:53:29.524Z,94231.28
2023-05-14T07:55:58.235Z,94237.50
2023-05-14T07:58:26.743Z,94239.50
2023-05-14T08:00:53.884Z,94234.88
2023-05-14T08:03:20.916Z,94226.16
2023-05-14T08:05:47.832Z,94214.63
2023-05-14T08:08:14.840Z,94213.44
2023-05-14T08:10:41.810Z,94224.53
2023-05-14T08:13:10.118Z,94224.91
2023-05-14T08:15:37.068Z,94217.56
2023-05-14T08:18:04.144Z,94210.06
2023-05-14T08:20:31.247Z,94210.13
2023-05-14T08:22:58.271Z,94210.06
2023-05-14T08:25:25.326Z,94209.91
2023-05-14T08:27:53.738Z,94195.22
2023-05-14T08:30:23.086Z,94187.06
2023-05-14T08:32:50.506Z,94188.19
2023-05-14T08:35:17.933Z,94189.53
2023-05-14T08:37:45.008Z,94192.94
2023-05-14T08:40:12.582Z,94181.72
2023-05-14T08:42:44.914Z,94174.16
2023-05-14T08:45:16.154Z,94182.72
2023-05-14T08:47:45.605Z,94180.81
2023-05-14T08:50:12.594Z,94173.91
2023-05-14T08:52:39.810Z,94180.00
2023-05-14T08:55:07.961Z,94173.25
2023-05-14T08:57:35.579Z,94183.75
2023-05-14T09:00:08.337Z,94178.97
2023-05-14T09:02:36.028Z,94171.94
2023-05-14T09:05:04.822Z,94170.63
2023-05-14T09:07:32.041Z,94162.34
2023-05-14T09:09:59.263Z,94167.00
2023-05-14T09:12:26.267Z,94165.88
2023-05-14T09:14:53.252Z,94162.44
2023-05-14T09:17:20.639Z,94163.00
2023-05-14T09:19:49.301Z,94169.09
2023-05-14T09:22:18.311Z,94168.34
2023-05-14T09:24:45.981Z,94177.22
2023-05-14T09:27:19.237Z,94183.09
2023-05-14T09:29:46.176Z,94170.28
2023-05-14T09:32:13.081Z,94155.38
2023-05-14T09:34:40.646Z,94151.50
2023-05-14T09:37:08.872Z,94165.22
2023-05-14T09:39:38.003Z,94165.88
2023-05-14T09:42:05.646Z,94160.72
2023-05-14T09:44:32.649Z,94150.66
2023-05-14T09:46:59.722Z,94143.50
2023-05-14T09:49:26.732Z,94137.59
2023-05-14T09:51:53.707Z,94135.06
2023-05-14T09:54:20.623Z,94138.16
2023-05-14T09:56:48.869Z,94144.34
2023-05-14T09:59:16.055Z,94136.31
2023-05-14T10:01:44.172Z,94139.06
2023-05-14T10:04:11.548Z,94133.63
2023-05-14T10:06:39.804Z,94127.50
2023-05-14T10:09:12.173Z,94116.31
2023-05-14T10:11:43.140Z,94114.53
2023-05-14T10:14:18.660Z,94122.94
2023-05-14T10:16:49.518Z,94124.03
2023-05-14T10:19:17.936Z,94108.59
2023-05-14T10:21:45.978Z,94101.72
2023-05-14T10:24:13.330Z,94106.69
2023-05-14T10:26:42.008Z,94109.59
2023-05-14T10:29:11.924Z,94114.75
2023-05-14T10:31:50.118Z,94125.03
2023-05-14T10:34:33.752Z,94123.88
2023-05-14T10:37:02.110Z,94125.78
2023-05-14T10:39:45.843Z,94119.44
2023-05-14T10:42:14.080Z,94119.63
2023-05-14T10:44:51.758Z,94118.50
2023-05-14T10:47:18.779Z,94107.28
2023-05-14T10:49:45.920Z,94109.31
2023-05-14T10:52:12.914Z,94102.59
2023-05-14T10:54:39.956Z,94106.81
2023-05-14T10:57:11.314Z,94105.69
2023-05-14T10:59:43.574Z,94104.81
2023-05-14T11:02:21.097Z,94093.09
2023-05-14T11:04:59.466Z,94091.00
2023-05-14T11:07:29.710Z,94083.16
2023-05-14T11:10:00.732Z,94099.06
2023-05-14T11:12:28.229Z,94104.22
2023-05-14T11:14:57.295Z,94106.63
2023-05-14T11:17:24.982Z,94107.78
2023-05-14T11:19:52.215Z,94109.75
2023-05-14T11:22:19.175Z,94111.66
2023-05-14T11:24:46.030Z,94114.38
2023-05-14T11:27:13.162Z,94108.13
2023-05-14T11:29:44.043Z,94118.44
2023-05-14T11:32:13.036Z,94105.56
2023-05-14T11:34:40.048Z,94089.78
2023-05-14T11:37:07.547Z,94112.59
2023-05-14T11:39:36.075Z,94115.13
2023-05-14T11:42:04.202Z,94109.00
2023-05-14T11:44:31.300Z,94098.13
2023-05-14T11:46:58.707Z,94094.97
2023-05-14T11:49:29.007Z,94097.09
2023-05-14T11:51:59.175Z,94091.94
2023-05-14T11:54:27.237Z,94093.41
2023-05-14T11:56:55.284Z,94083.09
2023-05-14T11:59:23.839Z,94091.00
2023-05-14T12:01:52.393Z,94087.44
2023-05-14T12:04:22.587Z,94083.56
2023-05-14T12:06:51.623Z,94075.69
2023-05-14T12:09:19.165Z,94086.47
2023-05-14T12:11:50.098Z,94083.09
2023-05-14T12:14:18.066Z,94071.66
2023-05-14T12:16:46.296Z,94060.19
2023-05-14T12:19:15.357Z,94048.41
2023-05-14T12:21:43.751Z,94045.19
2023-05-14T12:24:12.778Z,94050.16
2023-05-14T12:26:40.287Z,94040.16
2023-05-14T12:29:07.231Z,94033.75
2023-05-14T12:31:35.431Z,94037.94
2023-05-14T12:34:03.193Z,94033.91
2023-05-14T12:36:30.934Z,94034.41
2023-05-14T12:39:00.603Z,94039.09
2023-05-14T12:41:28.972Z,94013.97
2023-05-14T12:43:55.878Z,94017.97
2023-05-14T12:46:23.130Z,94008.63
2023-05-14T12:48:51.177Z,94017.66
2023-05-14T12:51:20.118Z,94005.41
2023-05-14T12:53:47.228Z,94009.44
2023-05-14T12:56:14.177Z,94002.81
2023-05-14T12:58:42.975Z,94012.13
2023-05-14T13:01:09.927Z,94009.56
2023-05-14T13:03:36.834Z,94019.88
2023-05-14T13:06:04.026Z,94007.78
2023-05-14T13:08:31.045Z,94012.00
2023-05-14T13:10:58.019Z,94007.81
2023-05-14T13:13:24.995Z,94005.22
2023-05-14T13:15:53.475Z,93998.00
2023-05-14T13:18:20.423Z,93998.81
2023-05-14T13:20:47.794Z,94000.44
2023-05-14T13:23:14.900Z,93984.03
2023-05-14T13:25:41.819Z,94003.69
2023-05-14T13:28:09.126Z,93994.38
2023-05-14T13:30:36.065Z,94002.88
2023-05-14T13:33:05.130Z,93998.72
2023-05-14T13:35:32.119Z,93997.56
2023-05-14T13:37:59.141Z,94017.56
2023-05-14T13:40:26.149Z,93986.94
2023-05-14T13:42:53.064Z,93979.72
2023-05-14T13:45:20.187Z,93982.59
2023-05-14T13:47:48.819Z,93990.16
2023-05-14T13:50:18.128Z,93972.31
2023-05-14T13:52:45.010Z,93956.00
2023-05-14T13:55:11.947Z,93975.50
2023-05-14T13:57:39.841Z,93962.31
2023-05-14T14:00:08.167Z,93971.16
2023-05-14T14:02:35.067Z,93979.69
2023-05-14T14:05:02.127Z,93991.78
2023-05-14T14:07:30.480Z,93999.03
2023-05-14T14:09:57.385Z,94003.72
2023-05-14T14:12:24.461Z,94002.72
2023-05-14T14:14:51.429Z,93991.94
2023-05-14T14:17:18.378Z,93992.91
2023-05-14T14:19:45.315Z,93985.97
2023-05-14T14:22:14.051Z,93981.16
2023-05-14T14:24:42.348Z,93985.16
2023-05-14T14:27:09.266Z,93999.50
2023-05-14T14:29:36.788Z,93986.16
2023-05-14T14:32:04.649Z,93979.06
2023-05-14T14:34:31.634Z,93979.06
2023-05-14T14:36:58.583Z,93986.13
2023-05-14T14:39:26.572Z,93980.31
2023-05-14T14:41:55.506Z,93980.81
2023-05-14T14:44:22.389Z,93979.34
2023-05-14T14:46:49.338Z,93977.91
2023-05-14T14:49:16.256Z,93981.09
2023-05-14T14:51:43.521Z,93981.09
2023-05-14T14:54:10.438Z,93978.84
2023-05-14T14:56:37.537Z,93986.44
2023-05-14T14:59:05.839Z,93977.56
2023-05-14T15:01:32.900Z,93980.16
2023-05-14T15:03:59.956Z,93977.25
2023-05-14T15:06:26.964Z,93965.03
2023-05-14T15:08:53.875Z,93970.81
2023-05-14T15:11:20.935Z,93971.63
2023-05-14T15:13:47.897Z,93969.53
2023-05-14T15:16:16.198Z,93969.81
2023-05-14T15:18:43.132Z,93971.56
2023-05-14T15:21:10.034Z,93965.41
2023-05-14T15:23:36.972Z,93973.91
2023-05-14T15:26:04.672Z,93970.97
2023-05-14T15:28:31.593Z,93968.06
2023-05-14T15:30:59.208Z,93961.47
2023-05-14T15:33:27.576Z,93955.88
2023-05-14T15:35:54.547Z,93962.13
2023-05-14T15:38:21.474Z,93964.38
2023-05-14T15:40:48.936Z,93957.31
2023-05-14T15:43:15.843Z,93959.25
2023-05-14T15:45:44.312Z,93956.81
2023-05-14T15:48:11.054Z,93964.81
2023-05-14T15:50:39.419Z,93962.25
2023-05-14T15:53:06.322Z,93954.72
2023-05-14T15:55:33.258Z,93955.88
2023-05-14T15:58:00.295Z,93963.94
2023-05-14T16:00:27.302Z,93963.59
2023-05-14T16:02:54.433Z,93965.63
2023-05-14T16:05:21.634Z,93961.00
2023-05-14T16:07:49.922Z,93954.72
2023-05-14T16:10:16.839Z,93954.41
2023-05-14T16:12:43.740Z,93952.34
2023-05-14T16:15:11.524Z,93947.34
2023-05-14T16:17:38.744Z,93949.94
2023-05-14T16:20:06.522Z,93946.28
2023-05-14T16:22:34.774Z,93940.00
2023-05-14T16:25:04.738Z,93947.75
2023-05-14T16:27:31.829Z,93947.28
2023-05-14T16:29:58.733Z,93946.13
2023-05-14T16:32:25.870Z,93958.53
2023-05-14T16:34:52.952Z,93956.09
2023-05-14T16:37:20.561Z,93947.88
2023-05-14T16:39:47.792Z,93940.50
2023-05-14T16:42:16.128Z,93945.00
2023-05-14T16:44:43.067Z,93945.97
2023-05-14T16:47:10.113Z,93934.41
2023-05-14T16:49:37.710Z,93948.09
2023-05-14T16:52:05.482Z,93931.66
2023-05-14T16:54:32.396Z,93945.19
2023-05-14T16:56:59.319Z,93924.25
2023-05-14T16:59:27.616Z,93912.84
2023-05-14T17:01:54.714Z,93900.47
2023-05-14T17:04:21.887Z,93892.44
2023-05-14T17:06:48.765Z,93894.19
2023-05-14T17:09:17.016Z,93895.34
2023-05-14T17:11:43.929Z,93897.09
2023-05-14T17:14:10.997Z,93897.09
2023-05-14T17:16:40.565Z,93898.38
2023-05-14T17:19:07.588Z,93898.84
2023-05-14T17:21:34.655Z,93890.34
2023-05-14T17:24:01.513Z,93875.69
2023-05-14T17:26:28.414Z,93881.81
2023-05-14T17:28:55.628Z,93880.84
2023-05-14T17:31:23.313Z,93878.75
2023-05-14T17:33:51.657Z,93880.53
2023-05-14T17:36:18.511Z,93890.19
2023-05-14T17:38:45.534Z,93882.75
2023-05-14T17:41:12.462Z,93886.16
2023-05-14T17:43:39.338Z,93872.47
2023-05-14T17:46:06.933Z,93869.09
2023-05-14T17:48:33.815Z,93878.44
2023-05-14T17:51:02.139Z,93875.66
2023-05-14T17:53:29.053Z,93878.09
2023-05-14T17:55:55.969Z,93887.56
2023-05-14T17:58:22.961Z,93888.81
2023-05-14T18:00:49.921Z,93888.66
2023-05-14T18:03:17.552Z,93874.66
2023-05-14T18:05:44.544Z,93879.19
2023-05-14T18:08:12.878Z,93885.78
2023-05-14T18:10:40.045Z,93892.81
2023-05-14T18:13:06.950Z,93897.66
2023-05-14T18:15:33.992Z,93898.31
2023-05-14T18:18:01.079Z,93898.16
2023-05-14T18:20:28.106Z,93899.44
2023-05-14T18:22:55.034Z,93899.56
2023-05-14T18:25:23.577Z,93899.38
2023-05-14T18:27:50.713Z,93893.75
2023-05-14T18:30:18.003Z,93875.75
2023-05-14T18:32:45.144Z,93877.66
2023-05-14T18:35:13.258Z,93877.84
2023-05-14T18:37:40.960Z,93877.19
2023-05-14T18:40:08.967Z,93872.56
2023-05-14T18:42:37.262Z,93870.47
2023-05-14T18:45:04.873Z,93879.00
2023-05-14T18:47:32.252Z,93876.75
2023-05-14T18:50:01.736Z,93884.81
2023-05-14T18:52:29.417Z,93892.69
2023-05-14T18:54:56.680Z,93889.97
2023-05-14T18:57:23.618Z,93892.69
2023-05-14T18:59:52.014Z,93892.53
2023-05-14T19:02:19.012Z,93898.31
2023-05-14T19:04:51.616Z,93901.19
2023-05-14T19:07:19.643Z,93896.53
2023-05-14T19:09:46.548Z,93909.03
2023-05-14T19:12:13.775Z,93901.09
2023-05-14T19:14:40.699Z,93909.09
2023-05-14T19:17:09.029Z,93901.88
2023-05-14T19:19:36.012Z,93906.25
2023-05-14T19:22:03.010Z,93909.78
2023-05-14T19:24:30.326Z,93905.31
2023-05-14T19:26:57.340Z,93911.41
2023-05-14T19:29:24.986Z,93919.94
2023-05-14T19:31:51.945Z,93925.22
2023-05-14T19:34:20.548Z,93927.16
2023-05-14T19:36:47.261Z,93949.50
2023-05-14T19:39:14.198Z,93930.28
2023-05-14T19:41:41.093Z,93930.63
2023-05-14T19:44:08.088Z,93925.81
2023-05-14T19:46:35.032Z,93901.88
2023-05-14T19:49:02.012Z,93900.53
2023-05-14T19:51:30.290Z,93907.63
2023-05-14T19:53:57.201Z,93906.31
2023-05-14T19:56:25.727Z,93902.13
2023-05-14T19:58:53.961Z,93904.69
2023-05-14T20:01:21.095Z,93898.09
2023-05-14T20:03:48.073Z,93909.84
2023-05-14T20:06:15.045Z,93897.97
2023-05-14T20:08:45.219Z,93893.28
2023-05-14T20:11:12.308Z,93892.81
2023-05-14T20:13:39.263Z,93876.63
2023-05-14T20:16:06.726Z,93870.19
2023-05-14T20:18:33.742Z,93883.25
2023-05-14T20:21:00.756Z,93885.34
2023-05-14T20:23:27.686Z,93894.50
2023-05-14T20:25:55.929Z,93897.06
2023-05-14T20:28:23.161Z,93899.28
2023-05-14T20:30:50.113Z,93882.03
2023-05-14T20:33:17.154Z,93894.25
2023-05-14T20:35:44.236Z,93882.97
2023-05-14T20:38:13.423Z,93886.84
2023-05-14T20:40:40.756Z,93897.63
2023-05-14T20:43:09.021Z,93904.56
2023-05-14T20:45:35.935Z,93890.25
2023-05-14T20:48:06.137Z,93869.53
2023-05-14T20:50:33.086Z,93872.44
2023-05-14T20:53:00.044Z,93867.81
2023-05-14T20:55:27.287Z,93877.91
2023-05-14T20:57:54.335Z,93866.84
2023-05-14T21:00:22.785Z,93863.13
2023-05-14T21:02:49.834Z,93863.63
2023-05-14T21:05:17.348Z,93864.44
2023-05-14T21:07:44.409Z,93869.72
2023-05-14T21:10:11.630Z,93880.81
2023-05-14T21:12:38.554Z,93887.09
2023-05-14T21:15:06.328Z,93878.28
2023-05-14T21:17:34.659Z,93882.28
2023-05-14T21:20:01.408Z,93880.03
2023-05-14T21:22:28.305Z,93876.50
2023-05-14T21:24:55.688Z,93866.22
2023-05-14T21:27:22.672Z,93879.75
2023-05-14T21:29:49.529Z,93883.41
2023-05-14T21:32:16.560Z,93879.22
2023-05-14T21:34:44.911Z,93862.69
2023-05-14T21:37:11.867Z,93877.78
2023-05-14T21:39:38.929Z,93860.56
2023-05-14T21:42:06.366Z,93867.19
2023-05-14T21:44:33.250Z,93865.88
2023-05-14T21:47:00.237Z,93860.91
2023-05-14T21:49:27.157Z,93855.59
2023-05-14T21:51:55.661Z,93855.28
2023-05-14T21:54:22.536Z,93842.22
2023-05-14T21:56:49.608Z,93848.03
2023-05-14T21:59:16.555Z,93832.75
2023-05-14T22:04:13.370Z,93827.78
2023-05-14T22:06:40.414Z,93839.34
2023-05-14T22:09:10.769Z,93841.44
2023-05-14T22:11:37.758Z,93841.59
2023-05-14T22:14:04.789Z,93832.78
2023-05-14T22:16:32.172Z,93836.44
2023-05-14T22:18:59.196Z,93829.22
2023-05-14T22:21:26.154Z,93820.38
2023-05-14T22:23:53.124Z,93823.75
2023-05-14T22:26:24.567Z,93837.09
2023-05-14T22:28:52.569Z,93834.84
2023-05-14T22:31:19.597Z,93821.03
2023-05-14T22:33:46.661Z,93829.84
2023-05-14T22:36:13.657Z,93824.53
2023-05-14T22:38:41.304Z,93819.88
2023-05-14T22:41:08.244Z,93819.56
2023-05-14T22:43:36.541Z,93814.41
2023-05-14T22:46:03.789Z,93804.63
2023-05-14T22:48:30.766Z,93809.25
2023-05-14T22:50:57.649Z,93800.72
2023-05-14T22:53:25.324Z,93798.81
2023-05-14T22:55:52.448Z,93794.97
2023-05-14T22:58:19.410Z,93798.00
2023-05-14T23:00:47.665Z,93795.63
2023-05-14T23:03:14.586Z,93788.38
2023-05-14T23:05:41.524Z,93804.47
2023-05-14T23:08:08.415Z,93790.81
2023-05-14T23:10:37.986Z,93794.81
2023-05-14T23:13:04.937Z,93783.88
2023-05-14T23:15:32.625Z,93808.47
2023-05-14T23:18:01.173Z,93800.28
2023-05-14T23:20:28.181Z,93795.44
2023-05-14T23:22:55.033Z,93798.84
2023-05-14T23:25:22.069Z,93763.63
2023-05-14T23:27:50.061Z,93775.53
2023-05-14T23:30:17.074Z,93770.38
2023-05-14T23:32:44.048Z,93777.94
2023-05-14T23:35:12.337Z,93772.28
2023-05-14T23:37:42.642Z,93759.44
2023-05-14T23:40:10.256Z,93750.63
2023-05-14T23:42:37.101Z,93732.44
2023-05-14T23:45:05.285Z,93734.19
2023-05-14T23:47:32.248Z,93715.88
2023-05-14T23:49:59.184Z,93704.00
2023-05-14T23:52:27.565Z,93707.69
2023-05-14T23:54:54.468Z,93696.59
2023-05-14T23:57:21.419Z,93689.06
2023-05-14T23:59:48.392Z,93678.28
